sensor_id;sensor_type;location;lat;lon;timestamp;pressure;altitude;pressure_sealevel;temperature;humidity
42335;BME280;27986;42.700;24.178;2022-10-17T00:00:59;95174.63;;;6.98;73.88
42335;BME280;27986;42.700;24.178;2022-10-17T00:03:24;95179.84;;;7.14;74.03
42335;BME280;27986;42.700;24.178;2022-10-17T00:05:50;95153.56;;;7.02;73.50
42335;BME280;27986;42.700;24.178;2022-10-17T00:08:16;95148.25;;;7.04;73.40
42335;BME280;27986;42.700;24.178;2022-10-17T00:10:42;95187.75;;;7.34;73.15
42335;BME280;27986;42.700;24.178;2022-10-17T00:13:09;95182.28;;;7.30;73.06
42335;BME280;27986;42.700;24.178;2022-10-17T00:15:34;95186.53;;;7.26;73.13
42335;BME280;27986;42.700;24.178;2022-10-17T00:18:00;95187.38;;;7.08;74.02
42335;BME280;27986;42.700;24.178;2022-10-17T00:20:27;95160.81;;;6.76;73.48
42335;BME280;27986;42.700;24.178;2022-10-17T00:22:55;95188.19;;;6.90;73.47
42335;BME280;27986;42.700;24.178;2022-10-17T00:25:20;95180.13;;;6.83;73.27
42335;BME280;27986;42.700;24.178;2022-10-17T00:27:46;95182.63;;;6.72;74.15
42335;BME280;27986;42.700;24.178;2022-10-17T00:30:13;95190.13;;;6.66;74.12
42335;BME280;27986;42.700;24.178;2022-10-17T00:32:40;95185.28;;;6.75;73.97
42335;BME280;27986;42.700;24.178;2022-10-17T00:35:06;95183.50;;;6.96;73.10
42335;BME280;27986;42.700;24.178;2022-10-17T00:37:32;95177.63;;;6.85;72.88
42335;BME280;27986;42.700;24.178;2022-10-17T00:39:58;95182.94;;;6.74;73.63
42335;BME280;27986;42.700;24.178;2022-10-17T00:42:26;95190.69;;;6.79;73.69
42335;BME280;27986;42.700;24.178;2022-10-17T00:45:17;95172.66;;;6.62;74.38
42335;BME280;27986;42.700;24.178;2022-10-17T00:47:47;95166.94;;;6.47;74.98
42335;BME280;27986;42.700;24.178;2022-10-17T00:50:15;95171.44;;;6.44;76.23
42335;BME280;27986;42.700;24.178;2022-10-17T00:52:42;95179.25;;;6.49;75.99
42335;BME280;27986;42.700;24.178;2022-10-17T00:55:12;95167.84;;;6.62;75.06
42335;BME280;27986;42.700;24.178;2022-10-17T00:57:39;95154.00;;;6.59;75.02
42335;BME280;27986;42.700;24.178;2022-10-17T01:00:08;95172.19;;;6.72;74.42
42335;BME280;27986;42.700;24.178;2022-10-17T01:02:34;95187.94;;;6.61;74.84
42335;BME280;27986;42.700;24.178;2022-10-17T01:05:00;95152.28;;;6.52;75.42
42335;BME280;27986;42.700;24.178;2022-10-17T01:07:27;95174.53;;;6.74;75.34
42335;BME280;27986;42.700;24.178;2022-10-17T01:09:53;95190.44;;;6.59;75.68
42335;BME280;27986;42.700;24.178;2022-10-17T01:12:23;95177.03;;;6.63;75.60
42335;BME280;27986;42.700;24.178;2022-10-17T01:31:15;95156.22;;;6.36;75.88
42335;BME280;27986;42.700;24.178;2022-10-17T01:33:48;95158.72;;;6.34;76.55
42335;BME280;27986;42.700;24.178;2022-10-17T01:36:37;95173.34;;;6.47;76.02
42335;BME280;27986;42.700;24.178;2022-10-17T01:42:11;95182.63;;;6.72;74.71
42335;BME280;27986;42.700;24.178;2022-10-17T01:47:16;95184.66;;;6.62;74.28
42335;BME280;27986;42.700;24.178;2022-10-17T01:49:45;95186.69;;;6.62;73.98
42335;BME280;27986;42.700;24.178;2022-10-17T01:52:22;95188.25;;;6.54;74.96
42335;BME280;27986;42.700;24.178;2022-10-17T01:54:54;95189.19;;;6.51;75.14
42335;BME280;27986;42.700;24.178;2022-10-17T01:57:32;95149.84;;;6.17;75.12
42335;BME280;27986;42.700;24.178;2022-10-17T02:00:01;95205.06;;;6.54;74.60
42335;BME280;27986;42.700;24.178;2022-10-17T02:02:28;95195.75;;;6.47;74.49
42335;BME280;27986;42.700;24.178;2022-10-17T02:04:55;95199.78;;;6.28;75.72
42335;BME280;27986;42.700;24.178;2022-10-17T02:07:21;95155.25;;;5.84;76.12
42335;BME280;27986;42.700;24.178;2022-10-17T02:09:47;95195.13;;;6.16;76.13
42335;BME280;27986;42.700;24.178;2022-10-17T02:20:23;95196.22;;;6.18;77.56
42335;BME280;27986;42.700;24.178;2022-10-17T02:23:09;95199.47;;;6.35;76.83
42335;BME280;27986;42.700;24.178;2022-10-17T02:29:21;95201.97;;;6.06;78.23
42335;BME280;27986;42.700;24.178;2022-10-17T02:32:02;95180.75;;;5.77;79.93
42335;BME280;27986;42.700;24.178;2022-10-17T02:34:41;95206.75;;;5.96;79.97
42335;BME280;27986;42.700;24.178;2022-10-17T02:37:09;95205.16;;;5.86;80.80
42335;BME280;27986;42.700;24.178;2022-10-17T02:39:38;95208.66;;;6.08;78.71
42335;BME280;27986;42.700;24.178;2022-10-17T02:42:06;95214.25;;;5.99;76.63
42335;BME280;27986;42.700;24.178;2022-10-17T02:44:35;95185.09;;;5.87;75.94
42335;BME280;27986;42.700;24.178;2022-10-17T02:47:21;95221.41;;;6.09;75.56
42335;BME280;27986;42.700;24.178;2022-10-17T02:49:52;95224.81;;;5.95;76.64
42335;BME280;27986;42.700;24.178;2022-10-17T02:52:34;95228.72;;;5.98;76.68
42335;BME280;27986;42.700;24.178;2022-10-17T02:57:41;95209.97;;;5.76;76.85
42335;BME280;27986;42.700;24.178;2022-10-17T03:00:11;95212.84;;;6.04;76.16
42335;BME280;27986;42.700;24.178;2022-10-17T03:05:04;95232.13;;;6.02;75.37
42335;BME280;27986;42.700;24.178;2022-10-17T03:07:30;95227.16;;;6.06;75.41
42335;BME280;27986;42.700;24.178;2022-10-17T03:09:55;95232.59;;;6.09;75.73
42335;BME280;27986;42.700;24.178;2022-10-17T03:12:20;95232.59;;;5.91;76.34
42335;BME280;27986;42.700;24.178;2022-10-17T03:14:46;95235.88;;;5.99;76.07
42335;BME280;27986;42.700;24.178;2022-10-17T03:17:11;95225.69;;;5.83;77.13
42335;BME280;27986;42.700;24.178;2022-10-17T03:19:36;95192.38;;;5.67;76.69
42335;BME280;27986;42.700;24.178;2022-10-17T03:22:02;95231.50;;;5.98;76.62
42335;BME280;27986;42.700;24.178;2022-10-17T03:24:27;95215.59;;;5.85;76.82
42335;BME280;27986;42.700;24.178;2022-10-17T03:26:53;95236.94;;;5.92;77.14
42335;BME280;27986;42.700;24.178;2022-10-17T03:29:18;95210.75;;;5.77;77.17
42335;BME280;27986;42.700;24.178;2022-10-17T03:31:44;95236.47;;;5.93;77.28
42335;BME280;27986;42.700;24.178;2022-10-17T03:34:09;95243.22;;;6.14;76.52
42335;BME280;27986;42.700;24.178;2022-10-17T03:36:34;95231.22;;;6.23;75.15
42335;BME280;27986;42.700;24.178;2022-10-17T03:39:00;95222.13;;;5.82;76.12
42335;BME280;27986;42.700;24.178;2022-10-17T03:41:25;95231.66;;;6.03;76.82
42335;BME280;27986;42.700;24.178;2022-10-17T03:43:51;95237.88;;;5.98;76.04
42335;BME280;27986;42.700;24.178;2022-10-17T03:46:18;95229.00;;;5.90;77.55
42335;BME280;27986;42.700;24.178;2022-10-17T03:48:43;95243.78;;;5.91;76.88
42335;BME280;27986;42.700;24.178;2022-10-17T03:51:10;95242.63;;;5.88;76.53
42335;BME280;27986;42.700;24.178;2022-10-17T03:53:35;95246.06;;;5.83;77.95
42335;BME280;27986;42.700;24.178;2022-10-17T03:56:14;95210.97;;;5.91;77.15
42335;BME280;27986;42.700;24.178;2022-10-17T03:58:40;95247.41;;;5.70;77.22
42335;BME280;27986;42.700;24.178;2022-10-17T04:01:08;95248.56;;;5.41;78.39
42335;BME280;27986;42.700;24.178;2022-10-17T04:03:34;95249.19;;;5.45;78.23
42335;BME280;27986;42.700;24.178;2022-10-17T04:06:01;95242.53;;;5.52;77.86
42335;BME280;27986;42.700;24.178;2022-10-17T04:08:27;95204.16;;;5.12;77.79
42335;BME280;27986;42.700;24.178;2022-10-17T04:11:04;95252.22;;;5.60;77.34
42335;BME280;27986;42.700;24.178;2022-10-17T04:13:30;95242.25;;;5.59;76.94
42335;BME280;27986;42.700;24.178;2022-10-17T04:16:01;95232.63;;;5.60;76.87
42335;BME280;27986;42.700;24.178;2022-10-17T04:18:27;95245.25;;;5.64;76.38
42335;BME280;27986;42.700;24.178;2022-10-17T04:20:53;95250.06;;;5.64;76.57
42335;BME280;27986;42.700;24.178;2022-10-17T04:23:19;95241.53;;;5.77;75.87
42335;BME280;27986;42.700;24.178;2022-10-17T04:25:44;95256.28;;;5.68;76.21
42335;BME280;27986;42.700;24.178;2022-10-17T04:28:10;95219.91;;;5.68;74.95
42335;BME280;27986;42.700;24.178;2022-10-17T04:30:36;95248.38;;;5.35;75.47
42335;BME280;27986;42.700;24.178;2022-10-17T04:33:01;95218.81;;;5.25;76.05
42335;BME280;27986;42.700;24.178;2022-10-17T04:35:27;95252.41;;;5.34;76.94
42335;BME280;27986;42.700;24.178;2022-10-17T04:37:52;95264.44;;;5.44;77.52
42335;BME280;27986;42.700;24.178;2022-10-17T04:40:18;95225.91;;;5.08;77.17
42335;BME280;27986;42.700;24.178;2022-10-17T04:42:43;95260.94;;;5.00;79.01
42335;BME280;27986;42.700;24.178;2022-10-17T04:45:09;95255.66;;;5.02;79.32
42335;BME280;27986;42.700;24.178;2022-10-17T04:47:35;95241.69;;;5.02;79.20
42335;BME280;27986;42.700;24.178;2022-10-17T04:50:01;95249.63;;;5.34;78.63
42335;BME280;27986;42.700;24.178;2022-10-17T04:52:27;95242.16;;;5.31;78.81
42335;BME280;27986;42.700;24.178;2022-10-17T04:54:52;95260.75;;;5.56;78.10
42335;BME280;27986;42.700;24.178;2022-10-17T04:57:18;95261.88;;;5.68;81.08
42335;BME280;27986;42.700;24.178;2022-10-17T04:59:44;95269.19;;;6.33;88.21
42335;BME280;27986;42.700;24.178;2022-10-17T05:02:10;95270.13;;;6.76;86.27
42335;BME280;27986;42.700;24.178;2022-10-17T05:04:35;95262.88;;;7.21;85.09
42335;BME280;27986;42.700;24.178;2022-10-17T05:07:07;95268.69;;;7.59;78.92
42335;BME280;27986;42.700;24.178;2022-10-17T05:09:32;95282.13;;;7.88;77.40
42335;BME280;27986;42.700;24.178;2022-10-17T05:11:58;95270.41;;;8.47;76.28
42335;BME280;27986;42.700;24.178;2022-10-17T05:14:23;95266.28;;;8.57;70.04
42335;BME280;27986;42.700;24.178;2022-10-17T05:16:49;95286.53;;;8.85;66.57
42335;BME280;27986;42.700;24.178;2022-10-17T05:19:15;95282.72;;;8.73;63.16
42335;BME280;27986;42.700;24.178;2022-10-17T05:21:42;95295.19;;;8.58;63.48
42335;BME280;27986;42.700;24.178;2022-10-17T05:24:10;95299.19;;;8.42;63.13
42335;BME280;27986;42.700;24.178;2022-10-17T05:26:37;95271.34;;;7.96;63.62
42335;BME280;27986;42.700;24.178;2022-10-17T05:29:03;95296.94;;;7.89;64.91
42335;BME280;27986;42.700;24.178;2022-10-17T05:31:29;95310.34;;;7.94;65.33
42335;BME280;27986;42.700;24.178;2022-10-17T05:33:55;95293.16;;;7.68;65.47
42335;BME280;27986;42.700;24.178;2022-10-17T05:36:24;95305.31;;;7.74;65.11
42335;BME280;27986;42.700;24.178;2022-10-17T05:38:50;95312.88;;;7.50;66.41
42335;BME280;27986;42.700;24.178;2022-10-17T05:41:17;95284.47;;;7.48;68.36
42335;BME280;27986;42.700;24.178;2022-10-17T05:43:43;95310.34;;;7.94;67.86
42335;BME280;27986;42.700;24.178;2022-10-17T05:46:09;95323.44;;;7.97;66.83
42335;BME280;27986;42.700;24.178;2022-10-17T05:48:35;95274.66;;;7.52;67.79
42335;BME280;27986;42.700;24.178;2022-10-17T05:51:03;95318.03;;;7.84;67.07
42335;BME280;27986;42.700;24.178;2022-10-17T05:53:30;95318.53;;;7.83;67.88
42335;BME280;27986;42.700;24.178;2022-10-17T05:55:57;95332.19;;;7.90;69.04
42335;BME280;27986;42.700;24.178;2022-10-17T05:58:23;95299.44;;;7.54;69.47
42335;BME280;27986;42.700;24.178;2022-10-17T06:00:49;95299.03;;;7.28;70.67
42335;BME280;27986;42.700;24.178;2022-10-17T06:03:14;95329.31;;;7.75;69.80
42335;BME280;27986;42.700;24.178;2022-10-17T06:05:40;95307.03;;;8.05;67.81
42335;BME280;27986;42.700;24.178;2022-10-17T06:08:05;95308.22;;;8.13;68.07
42335;BME280;27986;42.700;24.178;2022-10-17T06:10:31;95322.66;;;8.30;68.70
42335;BME280;27986;42.700;24.178;2022-10-17T06:12:56;95290.56;;;7.46;71.01
42335;BME280;27986;42.700;24.178;2022-10-17T06:15:21;95338.50;;;6.88;74.00
42335;BME280;27986;42.700;24.178;2022-10-17T06:17:47;95322.13;;;6.49;75.49
42335;BME280;27986;42.700;24.178;2022-10-17T06:20:12;95337.72;;;6.60;76.64
42335;BME280;27986;42.700;24.178;2022-10-17T06:22:38;95318.53;;;6.31;78.95
42335;BME280;27986;42.700;24.178;2022-10-17T06:25:03;95341.16;;;6.73;78.08
42335;BME280;27986;42.700;24.178;2022-10-17T06:27:29;95329.78;;;6.58;79.51
42335;BME280;27986;42.700;24.178;2022-10-17T06:29:54;95308.75;;;6.44;80.27
42335;BME280;27986;42.700;24.178;2022-10-17T06:32:20;95331.81;;;6.94;79.26
42335;BME280;27986;42.700;24.178;2022-10-17T06:34:45;95328.19;;;7.12;78.08
42335;BME280;27986;42.700;24.178;2022-10-17T06:37:11;95338.25;;;7.55;76.81
42335;BME280;27986;42.700;24.178;2022-10-17T06:39:36;95324.72;;;7.87;75.36
42335;BME280;27986;42.700;24.178;2022-10-17T06:42:03;95331.84;;;8.39;74.91
42335;BME280;27986;42.700;24.178;2022-10-17T06:44:28;95330.50;;;8.73;73.42
42335;BME280;27986;42.700;24.178;2022-10-17T06:46:57;95334.69;;;9.02;71.72
42335;BME280;27986;42.700;24.178;2022-10-17T06:49:23;95328.00;;;9.14;70.30
42335;BME280;27986;42.700;24.178;2022-10-17T06:51:48;95335.13;;;8.86;68.53
42335;BME280;27986;42.700;24.178;2022-10-17T06:54:14;95297.72;;;8.94;68.13
42335;BME280;27986;42.700;24.178;2022-10-17T06:56:39;95331.63;;;9.29;66.94
42335;BME280;27986;42.700;24.178;2022-10-17T06:59:05;95344.84;;;9.68;65.59
42335;BME280;27986;42.700;24.178;2022-10-17T07:01:31;95328.63;;;9.92;63.60
42335;BME280;27986;42.700;24.178;2022-10-17T07:03:56;95323.25;;;10.09;63.01
42335;BME280;27986;42.700;24.178;2022-10-17T07:06:22;95336.25;;;10.36;64.46
42335;BME280;27986;42.700;24.178;2022-10-17T07:08:50;95323.47;;;10.40;64.50
42335;BME280;27986;42.700;24.178;2022-10-17T07:11:20;95342.91;;;10.53;63.13
42335;BME280;27986;42.700;24.178;2022-10-17T07:13:46;95331.41;;;10.57;63.00
42335;BME280;27986;42.700;24.178;2022-10-17T07:16:13;95341.56;;;10.89;62.70
42335;BME280;27986;42.700;24.178;2022-10-17T07:18:39;95343.00;;;11.72;67.52
42335;BME280;27986;42.700;24.178;2022-10-17T07:21:05;95353.94;;;12.48;66.69
42335;BME280;27986;42.700;24.178;2022-10-17T07:23:33;95342.81;;;13.30;62.13
42335;BME280;27986;42.700;24.178;2022-10-17T07:26:02;95343.72;;;13.92;58.17
42335;BME280;27986;42.700;24.178;2022-10-17T07:28:31;95342.19;;;14.35;55.47
42335;BME280;27986;42.700;24.178;2022-10-17T07:31:08;95345.78;;;14.70;53.50
42335;BME280;27986;42.700;24.178;2022-10-17T07:33:35;95346.03;;;14.88;53.19
42335;BME280;27986;42.700;24.178;2022-10-17T07:36:01;95333.31;;;15.01;48.70
42335;BME280;27986;42.700;24.178;2022-10-17T07:38:27;95341.16;;;15.47;48.79
42335;BME280;27986;42.700;24.178;2022-10-17T07:40:59;95339.78;;;15.59;48.03
42335;BME280;27986;42.700;24.178;2022-10-17T07:43:24;95341.72;;;15.34;45.80
42335;BME280;27986;42.700;24.178;2022-10-17T07:45:51;95328.78;;;14.53;48.27
42335;BME280;27986;42.700;24.178;2022-10-17T07:48:17;95325.41;;;14.37;48.11
42335;BME280;27986;42.700;24.178;2022-10-17T07:50:43;95318.97;;;14.37;48.40
42335;BME280;27986;42.700;24.178;2022-10-17T07:53:08;95340.66;;;14.23;48.93
42335;BME280;27986;42.700;24.178;2022-10-17T07:55:36;95328.50;;;14.12;48.66
42335;BME280;27986;42.700;24.178;2022-10-17T07:58:01;95347.84;;;14.19;50.95
42335;BME280;27986;42.700;24.178;2022-10-17T08:00:27;95346.06;;;14.10;52.13
42335;BME280;27986;42.700;24.178;2022-10-17T08:02:52;95341.91;;;13.83;51.25
42335;BME280;27986;42.700;24.178;2022-10-17T08:05:17;95332.63;;;13.77;51.75
42335;BME280;27986;42.700;24.178;2022-10-17T08:07:43;95339.59;;;13.82;49.28
42335;BME280;27986;42.700;24.178;2022-10-17T08:10:11;95333.91;;;13.82;50.21
42335;BME280;27986;42.700;24.178;2022-10-17T08:12:38;95330.31;;;14.03;49.10
42335;BME280;27986;42.700;24.178;2022-10-17T08:15:05;95303.47;;;13.54;48.80
42335;BME280;27986;42.700;24.178;2022-10-17T08:17:33;95338.03;;;13.80;50.46
42335;BME280;27986;42.700;24.178;2022-10-17T08:19:59;95330.84;;;13.91;51.26
42335;BME280;27986;42.700;24.178;2022-10-17T08:22:24;95328.25;;;13.82;53.13
42335;BME280;27986;42.700;24.178;2022-10-17T08:24:50;95331.06;;;13.65;52.28
42335;BME280;27986;42.700;24.178;2022-10-17T08:27:16;95336.47;;;13.68;51.97
42335;BME280;27986;42.700;24.178;2022-10-17T08:29:47;95341.13;;;13.71;50.70
42335;BME280;27986;42.700;24.178;2022-10-17T08:32:17;95339.31;;;13.85;48.87
42335;BME280;27986;42.700;24.178;2022-10-17T08:34:44;95329.28;;;13.90;48.76
42335;BME280;27986;42.700;24.178;2022-10-17T08:37:09;95331.59;;;13.80;49.95
42335;BME280;27986;42.700;24.178;2022-10-17T08:39:37;95338.53;;;13.73;50.54
42335;BME280;27986;42.700;24.178;2022-10-17T08:42:40;95341.63;;;13.75;47.52
42335;BME280;27986;42.700;24.178;2022-10-17T08:48:01;95334.19;;;14.00;45.27
42335;BME280;27986;42.700;24.178;2022-10-17T08:55:44;95338.84;;;14.15;42.59
42335;BME280;27986;42.700;24.178;2022-10-17T08:58:19;95335.75;;;14.13;41.76
42335;BME280;27986;42.700;24.178;2022-10-17T09:06:21;95329.06;;;14.55;38.78
42335;BME280;27986;42.700;24.178;2022-10-17T09:09:14;95330.28;;;14.76;38.53
42335;BME280;27986;42.700;24.178;2022-10-17T09:21:09;95324.25;;;15.60;39.66
42335;BME280;27986;42.700;24.178;2022-10-17T09:23:12;95319.28;;;15.77;40.77
42335;BME280;27986;42.700;24.178;2022-10-17T09:25:43;95332.50;;;15.75;40.51
42335;BME280;27986;42.700;24.178;2022-10-17T09:28:14;95330.34;;;15.87;39.12
42335;BME280;27986;42.700;24.178;2022-10-17T09:30:42;95333.94;;;15.87;39.81
42335;BME280;27986;42.700;24.178;2022-10-17T09:33:19;95333.53;;;15.72;42.63
42335;BME280;27986;42.700;24.178;2022-10-17T09:35:47;95325.91;;;15.91;43.27
42335;BME280;27986;42.700;24.178;2022-10-17T09:38:20;95326.13;;;16.29;40.81
42335;BME280;27986;42.700;24.178;2022-10-17T09:40:58;95307.59;;;16.47;38.44
42335;BME280;27986;42.700;24.178;2022-10-17T09:43:27;95300.78;;;16.55;37.67
42335;BME280;27986;42.700;24.178;2022-10-17T09:48:26;95268.13;;;16.08;36.94
42335;BME280;27986;42.700;24.178;2022-10-17T09:50:52;95281.44;;;16.24;36.74
42335;BME280;27986;42.700;24.178;2022-10-17T09:53:29;95311.38;;;16.60;35.01
42335;BME280;27986;42.700;24.178;2022-10-17T09:56:01;95316.75;;;16.64;34.95
42335;BME280;27986;42.700;24.178;2022-10-17T10:01:19;95305.81;;;16.98;34.19
42335;BME280;27986;42.700;24.178;2022-10-17T10:03:46;95298.66;;;16.92;34.31
42335;BME280;27986;42.700;24.178;2022-10-17T10:06:15;95310.19;;;17.24;33.33
42335;BME280;27986;42.700;24.178;2022-10-17T10:08:53;95289.44;;;16.80;33.96
42335;BME280;27986;42.700;24.178;2022-10-17T10:11:24;95302.09;;;17.28;32.74
42335;BME280;27986;42.700;24.178;2022-10-17T10:13:50;95299.81;;;17.45;32.03
42335;BME280;27986;42.700;24.178;2022-10-17T10:18:41;95287.84;;;18.03;32.81
42335;BME280;27986;42.700;24.178;2022-10-17T10:21:11;95299.31;;;18.16;32.47
42335;BME280;27986;42.700;24.178;2022-10-17T10:23:45;95285.00;;;18.48;35.08
42335;BME280;27986;42.700;24.178;2022-10-17T10:26:31;95282.91;;;18.36;31.69
42335;BME280;27986;42.700;24.178;2022-10-17T10:29:04;95285.56;;;18.92;34.93
42335;BME280;27986;42.700;24.178;2022-10-17T10:31:34;95289.41;;;19.21;31.44
42335;BME280;27986;42.700;24.178;2022-10-17T10:34:11;95280.94;;;19.02;28.72
42335;BME280;27986;42.700;24.178;2022-10-17T10:36:45;95276.09;;;19.10;32.31
42335;BME280;27986;42.700;24.178;2022-10-17T10:39:34;95276.31;;;19.26;28.65
42335;BME280;27986;42.700;24.178;2022-10-17T10:41:57;95260.59;;;18.79;29.45
42335;BME280;27986;42.700;24.178;2022-10-17T10:44:24;95270.91;;;18.69;30.76
42335;BME280;27986;42.700;24.178;2022-10-17T10:49:38;95272.03;;;19.19;30.05
42335;BME280;27986;42.700;24.178;2022-10-17T10:52:05;95269.94;;;19.06;28.63
42335;BME280;27986;42.700;24.178;2022-10-17T10:54:38;95273.97;;;19.24;28.57
42335;BME280;27986;42.700;24.178;2022-10-17T10:57:05;95266.50;;;19.34;27.76
42335;BME280;27986;42.700;24.178;2022-10-17T10:59:54;95270.19;;;19.56;28.86
42335;BME280;27986;42.700;24.178;2022-10-17T11:05:14;95257.50;;;19.17;28.97
42335;BME280;27986;42.700;24.178;2022-10-17T11:10:34;95261.31;;;19.46;29.56
42335;BME280;27986;42.700;24.178;2022-10-17T11:13:22;95254.13;;;19.66;28.68
42335;BME280;27986;42.700;24.178;2022-10-17T11:15:57;95258.09;;;19.97;29.91
42335;BME280;27986;42.700;24.178;2022-10-17T11:20:55;95255.47;;;20.20;27.47
42335;BME280;27986;42.700;24.178;2022-10-17T11:23:29;95242.81;;;20.36;27.66
42335;BME280;27986;42.700;24.178;2022-10-17T11:26:02;95197.38;;;19.57;27.22
42335;BME280;27986;42.700;24.178;2022-10-17T11:28:29;95243.22;;;19.99;28.98
42335;BME280;27986;42.700;24.178;2022-10-17T11:33:33;95226.53;;;20.31;29.28
42335;BME280;27986;42.700;24.178;2022-10-17T11:36:04;95239.34;;;20.30;28.16
42335;BME280;27986;42.700;24.178;2022-10-17T11:40:58;95235.63;;;20.64;27.61
42335;BME280;27986;42.700;24.178;2022-10-17T11:43:32;95226.91;;;21.05;27.43
42335;BME280;27986;42.700;24.178;2022-10-17T11:48:41;95218.06;;;20.96;26.87
42335;BME280;27986;42.700;24.178;2022-10-17T11:51:13;95220.38;;;20.97;27.06
42335;BME280;27986;42.700;24.178;2022-10-17T11:54:13;95222.69;;;20.49;26.67
42335;BME280;27986;42.700;24.178;2022-10-17T11:56:40;95214.59;;;19.99;26.84
42335;BME280;27986;42.700;24.178;2022-10-17T11:59:52;95227.72;;;20.57;27.63
42335;BME280;27986;42.700;24.178;2022-10-17T12:02:17;95202.84;;;20.31;26.69
42335;BME280;27986;42.700;24.178;2022-10-17T12:05:09;95229.47;;;20.39;26.51
42335;BME280;27986;42.700;24.178;2022-10-17T12:07:47;95217.03;;;20.36;27.31
42335;BME280;27986;42.700;24.178;2022-10-17T12:12:53;95225.59;;;20.78;26.58
42335;BME280;27986;42.700;24.178;2022-10-17T12:17:53;95219.47;;;20.32;27.47
42335;BME280;27986;42.700;24.178;2022-10-17T12:22:49;95218.88;;;20.47;28.07
42335;BME280;27986;42.700;24.178;2022-10-17T12:25:29;95216.69;;;20.61;27.53
42335;BME280;27986;42.700;24.178;2022-10-17T12:28:09;95216.44;;;20.79;28.00
42335;BME280;27986;42.700;24.178;2022-10-17T12:30:35;95217.91;;;20.73;28.00
42335;BME280;27986;42.700;24.178;2022-10-17T12:38:43;95202.00;;;20.64;28.06
42335;BME280;27986;42.700;24.178;2022-10-17T12:41:09;95214.41;;;20.67;28.14
42335;BME280;27986;42.700;24.178;2022-10-17T12:46:07;95209.72;;;20.28;28.67
42335;BME280;27986;42.700;24.178;2022-10-17T12:51:11;95207.34;;;19.98;29.27
42335;BME280;27986;42.700;24.178;2022-10-17T12:56:56;95215.00;;;20.65;29.65
42335;BME280;27986;42.700;24.178;2022-10-17T12:59:28;95210.75;;;20.38;30.49
42335;BME280;27986;42.700;24.178;2022-10-17T13:01:57;95206.19;;;20.92;29.16
42335;BME280;27986;42.700;24.178;2022-10-17T13:04:24;95217.53;;;20.69;29.67
42335;BME280;27986;42.700;24.178;2022-10-17T13:06:54;95211.19;;;20.99;30.23
42335;BME280;27986;42.700;24.178;2022-10-17T13:09:30;95220.06;;;20.80;29.35
42335;BME280;27986;42.700;24.178;2022-10-17T13:12:00;95209.31;;;20.73;29.13
42335;BME280;27986;42.700;24.178;2022-10-17T13:14:27;95215.06;;;21.09;29.61
42335;BME280;27986;42.700;24.178;2022-10-17T13:17:02;95220.13;;;21.24;28.05
42335;BME280;27986;42.700;24.178;2022-10-17T13:19:30;95203.28;;;21.64;30.83
42335;BME280;27986;42.700;24.178;2022-10-17T13:21:58;95206.56;;;21.76;28.13
42335;BME280;27986;42.700;24.178;2022-10-17T13:24:32;95220.38;;;21.92;28.12
42335;BME280;27986;42.700;24.178;2022-10-17T13:26:59;95224.38;;;21.74;27.55
42335;BME280;27986;42.700;24.178;2022-10-17T13:29:25;95215.63;;;21.36;27.86
42335;BME280;27986;42.700;24.178;2022-10-17T13:31:54;95210.34;;;21.55;29.00
42335;BME280;27986;42.700;24.178;2022-10-17T13:34:24;95217.25;;;21.68;27.60
42335;BME280;27986;42.700;24.178;2022-10-17T13:36:59;95213.97;;;21.56;28.27
42335;BME280;27986;42.700;24.178;2022-10-17T13:39:28;95183.41;;;20.86;28.81
42335;BME280;27986;42.700;24.178;2022-10-17T13:41:56;95211.19;;;20.99;29.31
42335;BME280;27986;42.700;24.178;2022-10-17T13:44:23;95200.66;;;20.65;30.00
42335;BME280;27986;42.700;24.178;2022-10-17T13:46:50;95198.78;;;20.26;30.38
42335;BME280;27986;42.700;24.178;2022-10-17T13:51:54;95189.47;;;20.05;31.24
42335;BME280;27986;42.700;24.178;2022-10-17T13:54:39;95208.63;;;19.76;31.65
42335;BME280;27986;42.700;24.178;2022-10-17T13:57:19;95200.97;;;19.71;32.09
42335;BME280;27986;42.700;24.178;2022-10-17T13:59:51;95205.50;;;19.53;31.96
42335;BME280;27986;42.700;24.178;2022-10-17T14:02:28;95213.97;;;19.58;32.34
42335;BME280;27986;42.700;24.178;2022-10-17T14:07:40;95208.34;;;19.19;32.89
42335;BME280;27986;42.700;24.178;2022-10-17T14:10:32;95220.56;;;19.19;33.52
42335;BME280;27986;42.700;24.178;2022-10-17T14:13:00;95221.00;;;19.10;33.70
42335;BME280;27986;42.700;24.178;2022-10-17T14:15:30;95223.44;;;18.93;33.80
42335;BME280;27986;42.700;24.178;2022-10-17T14:18:01;95212.34;;;18.76;34.46
42335;BME280;27986;42.700;24.178;2022-10-17T14:20:27;95220.16;;;18.75;34.04
42335;BME280;27986;42.700;24.178;2022-10-17T14:22:55;95217.41;;;18.70;34.38
42335;BME280;27986;42.700;24.178;2022-10-17T14:25:38;95222.06;;;18.54;35.04
42335;BME280;27986;42.700;24.178;2022-10-17T14:30:37;95225.66;;;18.28;35.72
42335;BME280;27986;42.700;24.178;2022-10-17T14:33:06;95208.47;;;18.02;36.08
42335;BME280;27986;42.700;24.178;2022-10-17T14:35:32;95230.53;;;18.01;36.22
42335;BME280;27986;42.700;24.178;2022-10-17T14:38:03;95225.19;;;18.11;36.04
42335;BME280;27986;42.700;24.178;2022-10-17T14:40:31;95234.16;;;18.34;36.00
42335;BME280;27986;42.700;24.178;2022-10-17T14:42:59;95224.28;;;18.61;35.62
42335;BME280;27986;42.700;24.178;2022-10-17T14:45:37;95207.78;;;18.41;35.66
42335;BME280;27986;42.700;24.178;2022-10-17T14:48:10;95236.75;;;18.32;36.23
42335;BME280;27986;42.700;24.178;2022-10-17T14:50:36;95243.03;;;17.98;36.60
42335;BME280;27986;42.700;24.178;2022-10-17T14:55:54;95250.03;;;17.84;36.49
42335;BME280;27986;42.700;24.178;2022-10-17T14:58:28;95249.66;;;17.74;37.21
42335;BME280;27986;42.700;24.178;2022-10-17T15:00:54;95249.19;;;17.70;36.71
42335;BME280;27986;42.700;24.178;2022-10-17T15:03:20;95233.69;;;17.47;37.06
42335;BME280;27986;42.700;24.178;2022-10-17T15:05:46;95252.09;;;17.45;37.30